<?xml version="1.0" encoding="UTF-8"?><gpx creator="Wikiloc - https://www.wikiloc.com" version="1.1" xmlns="http://www.topografix.com/GPX/1/1" xmlns:xsi="http://www.w3.org/2001/XMLSchema-instance" xsi:schemaLocation="http://www.topografix.com/GPX/1/1 http://www.topografix.com/GPX/1/1/gpx.xsd"><metadata><name>Wikiloc - Sendero del Vino: El Prado</name><author><name>rutadelvinoriojaalta</name><link href="https://www.wikiloc.com/wikiloc/user.do?id=962740"><text>rutadelvinoriojaalta on Wikiloc</text></link></author><link href="https://www.wikiloc.com/hiking-trails/sendero-del-vino-el-prado-5909836"><text>Sendero del Vino: El Prado on Wikiloc</text></link><time>2014-01-07T11:19:17.901Z</time></metadata><trk><name>Sendero del Vino: El Prado</name><cmt></cmt><desc></desc><trkseg><trkpt lat="42.488008" lon="-2.755701"><ele>548.829</ele><time>2025-07-28T08:24:35.869986423Z</time></trkpt><trkpt lat="42.487968" lon="-2.755681"><ele>549.400</ele><time>2025-07-28T08:25:15.869990430Z</time></trkpt><trkpt lat="42.487988" lon="-2.755681"><ele>549.120</ele><time>2025-07-28T08:25:55.869993957Z</time></trkpt><trkpt lat="42.487968" lon="-2.755681"><ele>549.407</ele><time>2025-07-28T08:26:35.869996993Z</time></trkpt><trkpt lat="42.487968" lon="-2.755661"><ele>549.487</ele><time>2025-07-28T08:27:15.869999728Z</time></trkpt><trkpt lat="42.487988" lon="-2.755661"><ele>549.131</ele><time>2025-07-28T08:27:55.870002723Z</time></trkpt><trkpt lat="42.487948" lon="-2.755621"><ele>549.672</ele><time>2025-07-28T08:28:35.870006190Z</time></trkpt><trkpt lat="42.487838" lon="-2.755510"><ele>550.981</ele><time>2025-07-28T08:29:15.870009757Z</time></trkpt><trkpt lat="42.487498" lon="-2.755290"><ele>552.120</ele><time>2025-07-28T08:29:55.870013584Z</time></trkpt><trkpt lat="42.487088" lon="-2.755190"><ele>554.845</ele><time>2025-07-28T08:30:35.870017701Z</time></trkpt><trkpt lat="42.486728" lon="-2.755170"><ele>555.528</ele><time>2025-07-28T08:31:15.870021719Z</time></trkpt><trkpt lat="42.486488" lon="-2.755440"><ele>558.186</ele><time>2025-07-28T08:31:55.870025556Z</time></trkpt><trkpt lat="42.485248" lon="-2.756110"><ele>568.260</ele><time>2025-07-28T08:32:35.870029463Z</time></trkpt><trkpt lat="42.484798" lon="-2.756200"><ele>571.826</ele><time>2025-07-28T08:33:15.870033441Z</time></trkpt><trkpt lat="42.484318" lon="-2.756350"><ele>575.807</ele><time>2025-07-28T08:33:55.870037358Z</time></trkpt><trkpt lat="42.483868" lon="-2.756430"><ele>579.283</ele><time>2025-07-28T08:34:35.870041245Z</time></trkpt><trkpt lat="42.483548" lon="-2.756500"><ele>580.827</ele><time>2025-07-28T08:35:15.870045143Z</time></trkpt><trkpt lat="42.483118" lon="-2.756650"><ele>582.788</ele><time>2025-07-28T08:35:55.870049150Z</time></trkpt><trkpt lat="42.482988" lon="-2.756750"><ele>583.087</ele><time>2025-07-28T08:36:35.870053398Z</time></trkpt><trkpt lat="42.483078" lon="-2.756690"><ele>582.936</ele><time>2025-07-28T08:37:15.870057436Z</time></trkpt><trkpt lat="42.483098" lon="-2.756690"><ele>582.991</ele><time>2025-07-28T08:37:55.870061303Z</time></trkpt><trkpt lat="42.483078" lon="-2.756690"><ele>582.944</ele><time>2025-07-28T08:38:35.870065300Z</time></trkpt><trkpt lat="42.483098" lon="-2.756690"><ele>582.941</ele><time>2025-07-28T08:39:15.870069308Z</time></trkpt><trkpt lat="42.483078" lon="-2.756710"><ele>582.981</ele><time>2025-07-28T08:39:55.870073185Z</time></trkpt><trkpt lat="42.482778" lon="-2.756990"><ele>583.209</ele><time>2025-07-28T08:40:35.870076912Z</time></trkpt><trkpt lat="42.482438" lon="-2.757460"><ele>584.007</ele><time>2025-07-28T08:41:15.873011821Z</time></trkpt><trkpt lat="42.482158" lon="-2.757980"><ele>584.849</ele><time>2025-07-28T08:41:55.873022270Z</time></trkpt><trkpt lat="42.481828" lon="-2.758510"><ele>585.093</ele><time>2025-07-28T08:42:35.873025406Z</time></trkpt><trkpt lat="42.481448" lon="-2.759030"><ele>585.414</ele><time>2025-07-28T08:43:15.873028051Z</time></trkpt><trkpt lat="42.481038" lon="-2.759410"><ele>586.053</ele><time>2025-07-28T08:43:55.873030425Z</time></trkpt><trkpt lat="42.480678" lon="-2.760120"><ele>587.262</ele><time>2025-07-28T08:44:35.873032840Z</time></trkpt><trkpt lat="42.480458" lon="-2.760440"><ele>588.267</ele><time>2025-07-28T08:45:15.873035124Z</time></trkpt><trkpt lat="42.480438" lon="-2.760440"><ele>588.250</ele><time>2025-07-28T08:45:55.873037479Z</time></trkpt><trkpt lat="42.480308" lon="-2.760620"><ele>588.994</ele><time>2025-07-28T08:46:35.873040464Z</time></trkpt><trkpt lat="42.479798" lon="-2.761170"><ele>590.957</ele><time>2025-07-28T08:47:15.873043289Z</time></trkpt><trkpt lat="42.479688" lon="-2.761300"><ele>591.822</ele><time>2025-07-28T08:47:55.873046125Z</time></trkpt><trkpt lat="42.479688" lon="-2.761320"><ele>591.907</ele><time>2025-07-28T08:48:35.873048890Z</time></trkpt><trkpt lat="42.479668" lon="-2.761370"><ele>592.174</ele><time>2025-07-28T08:49:15.873051224Z</time></trkpt><trkpt lat="42.479258" lon="-2.761970"><ele>594.798</ele><time>2025-07-28T08:49:55.873053519Z</time></trkpt><trkpt lat="42.478788" lon="-2.762590"><ele>597.519</ele><time>2025-07-28T08:50:35.873055803Z</time></trkpt><trkpt lat="42.478548" lon="-2.762910"><ele>599.378</ele><time>2025-07-28T08:51:15.873058147Z</time></trkpt><trkpt lat="42.478548" lon="-2.762890"><ele>599.377</ele><time>2025-07-28T08:51:55.873060351Z</time></trkpt><trkpt lat="42.478528" lon="-2.762890"><ele>599.482</ele><time>2025-07-28T08:52:35.873062636Z</time></trkpt><trkpt lat="42.478488" lon="-2.763170"><ele>600.125</ele><time>2025-07-28T08:53:15.873064920Z</time></trkpt><trkpt lat="42.478768" lon="-2.763600"><ele>599.935</ele><time>2025-07-28T08:53:55.873067324Z</time></trkpt><trkpt lat="42.478998" lon="-2.764090"><ele>599.386</ele><time>2025-07-28T08:54:35.873069639Z</time></trkpt><trkpt lat="42.479368" lon="-2.764540"><ele>595.614</ele><time>2025-07-28T08:55:15.873071893Z</time></trkpt><trkpt lat="42.479798" lon="-2.765061"><ele>591.407</ele><time>2025-07-28T08:55:55.873074197Z</time></trkpt><trkpt lat="42.480028" lon="-2.765441"><ele>588.958</ele><time>2025-07-28T08:56:35.873076532Z</time></trkpt><trkpt lat="42.480048" lon="-2.765461"><ele>588.852</ele><time>2025-07-28T08:57:15.873078856Z</time></trkpt><trkpt lat="42.480048" lon="-2.765491"><ele>588.883</ele><time>2025-07-28T08:57:55.873081110Z</time></trkpt><trkpt lat="42.480028" lon="-2.765491"><ele>588.972</ele><time>2025-07-28T08:58:35.873083344Z</time></trkpt><trkpt lat="42.480048" lon="-2.765491"><ele>588.881</ele><time>2025-07-28T08:59:15.873085599Z</time></trkpt><trkpt lat="42.480028" lon="-2.765491"><ele>588.986</ele><time>2025-07-28T08:59:55.873087833Z</time></trkpt><trkpt lat="42.480138" lon="-2.765641"><ele>587.569</ele><time>2025-07-28T09:00:35.873090097Z</time></trkpt><trkpt lat="42.480178" lon="-2.765661"><ele>587.036</ele><time>2025-07-28T09:01:15.873092511Z</time></trkpt><trkpt lat="42.480198" lon="-2.765681"><ele>586.617</ele><time>2025-07-28T09:01:55.873094976Z</time></trkpt><trkpt lat="42.480308" lon="-2.765790"><ele>584.118</ele><time>2025-07-28T09:02:35.873097280Z</time></trkpt><trkpt lat="42.480568" lon="-2.766170"><ele>578.407</ele><time>2025-07-28T09:03:15.873099575Z</time></trkpt><trkpt lat="42.480828" lon="-2.766710"><ele>570.958</ele><time>2025-07-28T09:03:55.873101849Z</time></trkpt><trkpt lat="42.481058" lon="-2.767100"><ele>571.422</ele><time>2025-07-28T09:04:35.873104083Z</time></trkpt><trkpt lat="42.481128" lon="-2.767200"><ele>572.123</ele><time>2025-07-28T09:05:15.873106317Z</time></trkpt><trkpt lat="42.481148" lon="-2.767200"><ele>572.342</ele><time>2025-07-28T09:05:55.873108531Z</time></trkpt><trkpt lat="42.481168" lon="-2.767200"><ele>572.591</ele><time>2025-07-28T09:06:35.873110836Z</time></trkpt><trkpt lat="42.481168" lon="-2.767220"><ele>572.616</ele><time>2025-07-28T09:07:15.873113090Z</time></trkpt><trkpt lat="42.481188" lon="-2.767200"><ele>572.799</ele><time>2025-07-28T09:07:55.873115434Z</time></trkpt><trkpt lat="42.481168" lon="-2.767200"><ele>572.562</ele><time>2025-07-28T09:08:35.873117789Z</time></trkpt><trkpt lat="42.481188" lon="-2.767200"><ele>572.783</ele><time>2025-07-28T09:09:15.873120063Z</time></trkpt><trkpt lat="42.481188" lon="-2.767220"><ele>572.811</ele><time>2025-07-28T09:09:55.873122337Z</time></trkpt><trkpt lat="42.481168" lon="-2.767220"><ele>572.607</ele><time>2025-07-28T09:10:35.873143807Z</time></trkpt><trkpt lat="42.481168" lon="-2.767200"><ele>572.581</ele><time>2025-07-28T09:11:15.873146472Z</time></trkpt><trkpt lat="42.481168" lon="-2.767220"><ele>572.625</ele><time>2025-07-28T09:11:55.873148837Z</time></trkpt><trkpt lat="42.481228" lon="-2.767400"><ele>574.336</ele><time>2025-07-28T09:12:35.873151231Z</time></trkpt><trkpt lat="42.481428" lon="-2.767870"><ele>577.625</ele><time>2025-07-28T09:13:15.873153676Z</time></trkpt><trkpt lat="42.481678" lon="-2.768450"><ele>581.924</ele><time>2025-07-28T09:13:55.873156090Z</time></trkpt><trkpt lat="42.481988" lon="-2.768940"><ele>585.039</ele><time>2025-07-28T09:14:35.873158545Z</time></trkpt><trkpt lat="42.482218" lon="-2.769200"><ele>585.032</ele><time>2025-07-28T09:15:15.873160960Z</time></trkpt><trkpt lat="42.482198" lon="-2.769180"><ele>585.027</ele><time>2025-07-28T09:15:55.873163504Z</time></trkpt><trkpt lat="42.482198" lon="-2.769160"><ele>585.068</ele><time>2025-07-28T09:16:35.873165879Z</time></trkpt><trkpt lat="42.482198" lon="-2.769180"><ele>585.014</ele><time>2025-07-28T09:17:15.873168313Z</time></trkpt><trkpt lat="42.482218" lon="-2.769180"><ele>585.007</ele><time>2025-07-28T09:17:55.873170748Z</time></trkpt><trkpt lat="42.482438" lon="-2.769390"><ele>584.187</ele><time>2025-07-28T09:18:35.873172982Z</time></trkpt><trkpt lat="42.482858" lon="-2.769090"><ele>584.161</ele><time>2025-07-28T09:19:15.873175306Z</time></trkpt><trkpt lat="42.483398" lon="-2.768900"><ele>585.312</ele><time>2025-07-28T09:19:55.873177691Z</time></trkpt><trkpt lat="42.483848" lon="-2.768960"><ele>586.061</ele><time>2025-07-28T09:20:35.873180025Z</time></trkpt><trkpt lat="42.484218" lon="-2.769200"><ele>586.040</ele><time>2025-07-28T09:21:15.873182500Z</time></trkpt><trkpt lat="42.484348" lon="-2.769310"><ele>586.085</ele><time>2025-07-28T09:21:55.873184914Z</time></trkpt><trkpt lat="42.484348" lon="-2.769280"><ele>586.078</ele><time>2025-07-28T09:22:35.873187279Z</time></trkpt><trkpt lat="42.484348" lon="-2.769310"><ele>586.021</ele><time>2025-07-28T09:23:15.873189693Z</time></trkpt><trkpt lat="42.484348" lon="-2.769280"><ele>586.041</ele><time>2025-07-28T09:23:55.873192138Z</time></trkpt><trkpt lat="42.484348" lon="-2.769310"><ele>586.005</ele><time>2025-07-28T09:24:35.873194562Z</time></trkpt><trkpt lat="42.484348" lon="-2.769280"><ele>586.007</ele><time>2025-07-28T09:25:15.873196887Z</time></trkpt><trkpt lat="42.484388" lon="-2.769330"><ele>586.057</ele><time>2025-07-28T09:25:55.873199341Z</time></trkpt><trkpt lat="42.484578" lon="-2.769330"><ele>586.361</ele><time>2025-07-28T09:26:35.873201786Z</time></trkpt><trkpt lat="42.484948" lon="-2.769010"><ele>586.062</ele><time>2025-07-28T09:27:15.873204100Z</time></trkpt><trkpt lat="42.485158" lon="-2.768750"><ele>586.081</ele><time>2025-07-28T09:27:55.873206495Z</time></trkpt><trkpt lat="42.485328" lon="-2.768490"><ele>586.270</ele><time>2025-07-28T09:28:35.873208919Z</time></trkpt><trkpt lat="42.485588" lon="-2.767980"><ele>586.245</ele><time>2025-07-28T09:29:15.873211244Z</time></trkpt><trkpt lat="42.485798" lon="-2.767310"><ele>586.348</ele><time>2025-07-28T09:29:55.873213658Z</time></trkpt><trkpt lat="42.486338" lon="-2.766520"><ele>585.484</ele><time>2025-07-28T09:30:35.873216193Z</time></trkpt><trkpt lat="42.486808" lon="-2.765890"><ele>584.207</ele><time>2025-07-28T09:31:15.873218517Z</time></trkpt><trkpt lat="42.487048" lon="-2.765640"><ele>584.117</ele><time>2025-07-28T09:31:55.873220842Z</time></trkpt><trkpt lat="42.487478" lon="-2.765190"><ele>583.607</ele><time>2025-07-28T09:32:35.873223096Z</time></trkpt><trkpt lat="42.487908" lon="-2.764560"><ele>582.763</ele><time>2025-07-28T09:33:15.873225350Z</time></trkpt><trkpt lat="42.488228" lon="-2.764050"><ele>582.047</ele><time>2025-07-28T09:33:55.873227734Z</time></trkpt><trkpt lat="42.488268" lon="-2.764010"><ele>582.048</ele><time>2025-07-28T09:34:35.873229989Z</time></trkpt><trkpt lat="42.488248" lon="-2.763980"><ele>582.047</ele><time>2025-07-28T09:35:15.873232273Z</time></trkpt><trkpt lat="42.488248" lon="-2.763960"><ele>582.026</ele><time>2025-07-28T09:35:55.873234507Z</time></trkpt><trkpt lat="42.488248" lon="-2.763980"><ele>582.061</ele><time>2025-07-28T09:36:35.873236701Z</time></trkpt><trkpt lat="42.488358" lon="-2.763830"><ele>582.054</ele><time>2025-07-28T09:37:15.873238925Z</time></trkpt><trkpt lat="42.488548" lon="-2.763600"><ele>582.089</ele><time>2025-07-28T09:37:55.873241260Z</time></trkpt><trkpt lat="42.488828" lon="-2.763230"><ele>581.506</ele><time>2025-07-28T09:38:35.873245808Z</time></trkpt><trkpt lat="42.489148" lon="-2.762800"><ele>581.126</ele><time>2025-07-28T09:39:15.873248173Z</time></trkpt><trkpt lat="42.489258" lon="-2.762650"><ele>581.207</ele><time>2025-07-28T09:39:55.873250487Z</time></trkpt><trkpt lat="42.489618" lon="-2.762250"><ele>581.183</ele><time>2025-07-28T09:40:35.873252741Z</time></trkpt><trkpt lat="42.489818" lon="-2.761900"><ele>580.327</ele><time>2025-07-28T09:41:15.873255025Z</time></trkpt><trkpt lat="42.490028" lon="-2.761580"><ele>580.188</ele><time>2025-07-28T09:41:55.873257310Z</time></trkpt><trkpt lat="42.490288" lon="-2.761320"><ele>580.077</ele><time>2025-07-28T09:42:35.873259694Z</time></trkpt><trkpt lat="42.490648" lon="-2.761000"><ele>579.216</ele><time>2025-07-28T09:43:15.873261998Z</time></trkpt><trkpt lat="42.490948" lon="-2.760740"><ele>579.011</ele><time>2025-07-28T09:43:55.873264333Z</time></trkpt><trkpt lat="42.491278" lon="-2.760470"><ele>579.094</ele><time>2025-07-28T09:44:35.873266898Z</time></trkpt><trkpt lat="42.491598" lon="-2.760190"><ele>578.788</ele><time>2025-07-28T09:45:15.873269242Z</time></trkpt><trkpt lat="42.491808" lon="-2.760010"><ele>578.024</ele><time>2025-07-28T09:45:55.873271536Z</time></trkpt><trkpt lat="42.491978" lon="-2.759890"><ele>578.026</ele><time>2025-07-28T09:46:35.873273811Z</time></trkpt><trkpt lat="42.492348" lon="-2.759650"><ele>578.007</ele><time>2025-07-28T09:47:15.873276105Z</time></trkpt><trkpt lat="42.492688" lon="-2.759370"><ele>577.293</ele><time>2025-07-28T09:47:55.873278419Z</time></trkpt><trkpt lat="42.493058" lon="-2.759110"><ele>577.027</ele><time>2025-07-28T09:48:35.873280713Z</time></trkpt><trkpt lat="42.493078" lon="-2.759090"><ele>576.928</ele><time>2025-07-28T09:49:15.873282968Z</time></trkpt><trkpt lat="42.493098" lon="-2.759090"><ele>576.877</ele><time>2025-07-28T09:49:55.873285202Z</time></trkpt><trkpt lat="42.493078" lon="-2.759090"><ele>576.916</ele><time>2025-07-28T09:50:35.873287436Z</time></trkpt><trkpt lat="42.493098" lon="-2.759090"><ele>576.811</ele><time>2025-07-28T09:51:15.873289740Z</time></trkpt><trkpt lat="42.493118" lon="-2.759070"><ele>576.864</ele><time>2025-07-28T09:51:55.873292035Z</time></trkpt><trkpt lat="42.493308" lon="-2.758880"><ele>576.162</ele><time>2025-07-28T09:52:35.873294389Z</time></trkpt><trkpt lat="42.493417" lon="-2.758680"><ele>576.083</ele><time>2025-07-28T09:53:15.873296693Z</time></trkpt><trkpt lat="42.493417" lon="-2.758660"><ele>576.011</ele><time>2025-07-28T09:53:55.873298968Z</time></trkpt><trkpt lat="42.493487" lon="-2.758490"><ele>575.807</ele><time>2025-07-28T09:54:35.873301192Z</time></trkpt><trkpt lat="42.493637" lon="-2.758100"><ele>574.931</ele><time>2025-07-28T09:55:15.873303446Z</time></trkpt><trkpt lat="42.493787" lon="-2.757760"><ele>574.125</ele><time>2025-07-28T09:55:55.873305710Z</time></trkpt><trkpt lat="42.493937" lon="-2.757400"><ele>573.626</ele><time>2025-07-28T09:56:35.873307974Z</time></trkpt><trkpt lat="42.494127" lon="-2.757050"><ele>571.475</ele><time>2025-07-28T09:57:15.873310199Z</time></trkpt><trkpt lat="42.494337" lon="-2.756670"><ele>570.244</ele><time>2025-07-28T09:57:55.873312413Z</time></trkpt><trkpt lat="42.494487" lon="-2.756370"><ele>568.569</ele><time>2025-07-28T09:58:35.873314657Z</time></trkpt><trkpt lat="42.494557" lon="-2.756150"><ele>566.962</ele><time>2025-07-28T09:59:15.873316941Z</time></trkpt><trkpt lat="42.494537" lon="-2.756260"><ele>567.584</ele><time>2025-07-28T09:59:55.873319246Z</time></trkpt><trkpt lat="42.494517" lon="-2.756260"><ele>567.807</ele><time>2025-07-28T10:00:35.873327321Z</time></trkpt><trkpt lat="42.494598" lon="-2.755940"><ele>565.717</ele><time>2025-07-28T10:01:15.873329785Z</time></trkpt><trkpt lat="42.494688" lon="-2.755510"><ele>563.207</ele><time>2025-07-28T10:01:55.873332039Z</time></trkpt><trkpt lat="42.494798" lon="-2.755080"><ele>560.363</ele><time>2025-07-28T10:02:35.873334324Z</time></trkpt><trkpt lat="42.494818" lon="-2.754950"><ele>559.377</ele><time>2025-07-28T10:03:15.873336548Z</time></trkpt><trkpt lat="42.494858" lon="-2.754860"><ele>558.368</ele><time>2025-07-28T10:03:55.873338782Z</time></trkpt><trkpt lat="42.494918" lon="-2.754590"><ele>556.317</ele><time>2025-07-28T10:04:35.873341036Z</time></trkpt><trkpt lat="42.494918" lon="-2.754560"><ele>556.136</ele><time>2025-07-28T10:05:15.873343311Z</time></trkpt><trkpt lat="42.494898" lon="-2.754630"><ele>556.641</ele><time>2025-07-28T10:05:55.873345615Z</time></trkpt><trkpt lat="42.494858" lon="-2.754740"><ele>557.684</ele><time>2025-07-28T10:06:35.873347889Z</time></trkpt><trkpt lat="42.494878" lon="-2.754740"><ele>557.432</ele><time>2025-07-28T10:07:15.873350244Z</time></trkpt><trkpt lat="42.494858" lon="-2.754740"><ele>557.692</ele><time>2025-07-28T10:07:55.873352548Z</time></trkpt><trkpt lat="42.494878" lon="-2.754690"><ele>557.211</ele><time>2025-07-28T10:08:35.873355012Z</time></trkpt><trkpt lat="42.495008" lon="-2.754180"><ele>554.007</ele><time>2025-07-28T10:09:15.873357297Z</time></trkpt><trkpt lat="42.495248" lon="-2.753260"><ele>548.098</ele><time>2025-07-28T10:09:55.873359581Z</time></trkpt><trkpt lat="42.495328" lon="-2.752870"><ele>546.472</ele><time>2025-07-28T10:10:35.873361805Z</time></trkpt><trkpt lat="42.495328" lon="-2.752850"><ele>546.363</ele><time>2025-07-28T10:11:15.873364079Z</time></trkpt><trkpt lat="42.495398" lon="-2.752630"><ele>545.862</ele><time>2025-07-28T10:11:55.873366314Z</time></trkpt><trkpt lat="42.495458" lon="-2.752380"><ele>544.651</ele><time>2025-07-28T10:12:35.873368548Z</time></trkpt><trkpt lat="42.495438" lon="-2.752480"><ele>545.336</ele><time>2025-07-28T10:13:15.873370752Z</time></trkpt><trkpt lat="42.495458" lon="-2.752440"><ele>545.089</ele><time>2025-07-28T10:13:55.873372996Z</time></trkpt><trkpt lat="42.495458" lon="-2.752420"><ele>544.944</ele><time>2025-07-28T10:14:35.873375320Z</time></trkpt><trkpt lat="42.495458" lon="-2.752440"><ele>545.005</ele><time>2025-07-28T10:15:15.873377645Z</time></trkpt><trkpt lat="42.495458" lon="-2.752420"><ele>544.915</ele><time>2025-07-28T10:15:55.873379909Z</time></trkpt><trkpt lat="42.495548" lon="-2.752010"><ele>542.307</ele><time>2025-07-28T10:16:35.873382173Z</time></trkpt><trkpt lat="42.495588" lon="-2.751820"><ele>541.749</ele><time>2025-07-28T10:17:15.873384427Z</time></trkpt><trkpt lat="42.495568" lon="-2.751820"><ele>541.983</ele><time>2025-07-28T10:17:55.873386692Z</time></trkpt><trkpt lat="42.495588" lon="-2.751800"><ele>541.674</ele><time>2025-07-28T10:18:35.873388946Z</time></trkpt><trkpt lat="42.495758" lon="-2.751540"><ele>538.873</ele><time>2025-07-28T10:19:15.873391170Z</time></trkpt><trkpt lat="42.495778" lon="-2.751410"><ele>538.182</ele><time>2025-07-28T10:19:55.873393454Z</time></trkpt><trkpt lat="42.495778" lon="-2.751430"><ele>538.127</ele><time>2025-07-28T10:20:35.873395699Z</time></trkpt><trkpt lat="42.495758" lon="-2.751430"><ele>538.570</ele><time>2025-07-28T10:21:15.873398083Z</time></trkpt><trkpt lat="42.495718" lon="-2.751430"><ele>539.288</ele><time>2025-07-28T10:21:55.873400828Z</time></trkpt><trkpt lat="42.495648" lon="-2.751430"><ele>540.424</ele><time>2025-07-28T10:22:35.873403092Z</time></trkpt><trkpt lat="42.495648" lon="-2.751410"><ele>540.426</ele><time>2025-07-28T10:23:15.873405347Z</time></trkpt><trkpt lat="42.495998" lon="-2.751240"><ele>536.307</ele><time>2025-07-28T10:23:55.873407591Z</time></trkpt><trkpt lat="42.495848" lon="-2.751320"><ele>537.273</ele><time>2025-07-28T10:24:35.873409805Z</time></trkpt><trkpt lat="42.495458" lon="-2.751090"><ele>539.897</ele><time>2025-07-28T10:25:15.873412039Z</time></trkpt><trkpt lat="42.495348" lon="-2.751000"><ele>540.698</ele><time>2025-07-28T10:25:55.873414303Z</time></trkpt><trkpt lat="42.495398" lon="-2.751050"><ele>540.257</ele><time>2025-07-28T10:26:35.873416558Z</time></trkpt><trkpt lat="42.495418" lon="-2.751050"><ele>540.186</ele><time>2025-07-28T10:27:15.873418862Z</time></trkpt><trkpt lat="42.495398" lon="-2.751050"><ele>540.211</ele><time>2025-07-28T10:27:55.873421096Z</time></trkpt><trkpt lat="42.495398" lon="-2.751070"><ele>540.214</ele><time>2025-07-28T10:28:35.873424773Z</time></trkpt><trkpt lat="42.495398" lon="-2.751050"><ele>540.268</ele><time>2025-07-28T10:29:15.873427117Z</time></trkpt><trkpt lat="42.495138" lon="-2.750920"><ele>541.742</ele><time>2025-07-28T10:29:55.873429402Z</time></trkpt><trkpt lat="42.494818" lon="-2.750770"><ele>542.326</ele><time>2025-07-28T10:30:35.873431666Z</time></trkpt><trkpt lat="42.494428" lon="-2.750790"><ele>543.607</ele><time>2025-07-28T10:31:15.873433920Z</time></trkpt><trkpt lat="42.493978" lon="-2.750900"><ele>542.961</ele><time>2025-07-28T10:31:55.873436184Z</time></trkpt><trkpt lat="42.493638" lon="-2.751090"><ele>542.025</ele><time>2025-07-28T10:32:35.873438428Z</time></trkpt><trkpt lat="42.493288" lon="-2.751200"><ele>540.476</ele><time>2025-07-28T10:33:15.873440643Z</time></trkpt><trkpt lat="42.493158" lon="-2.751260"><ele>540.125</ele><time>2025-07-28T10:33:55.873442897Z</time></trkpt><trkpt lat="42.492838" lon="-2.751451"><ele>539.224</ele><time>2025-07-28T10:34:35.873445231Z</time></trkpt><trkpt lat="42.492308" lon="-2.751541"><ele>538.479</ele><time>2025-07-28T10:35:15.873447485Z</time></trkpt><trkpt lat="42.491857" lon="-2.752051"><ele>539.672</ele><time>2025-07-28T10:35:55.873449750Z</time></trkpt><trkpt lat="42.491337" lon="-2.752551"><ele>540.722</ele><time>2025-07-28T10:36:35.873452104Z</time></trkpt><trkpt lat="42.491297" lon="-2.752611"><ele>541.462</ele><time>2025-07-28T10:37:15.873454408Z</time></trkpt><trkpt lat="42.491297" lon="-2.752591"><ele>541.108</ele><time>2025-07-28T10:37:55.873456693Z</time></trkpt><trkpt lat="42.491317" lon="-2.752591"><ele>541.207</ele><time>2025-07-28T10:38:35.873458957Z</time></trkpt><trkpt lat="42.491227" lon="-2.752681"><ele>541.977</ele><time>2025-07-28T10:39:15.873461181Z</time></trkpt><trkpt lat="42.491017" lon="-2.752801"><ele>541.741</ele><time>2025-07-28T10:39:55.873463395Z</time></trkpt><trkpt lat="42.490997" lon="-2.752831"><ele>542.132</ele><time>2025-07-28T10:40:35.873465659Z</time></trkpt><trkpt lat="42.490777" lon="-2.753061"><ele>543.581</ele><time>2025-07-28T10:41:15.873467924Z</time></trkpt><trkpt lat="42.490737" lon="-2.753131"><ele>543.820</ele><time>2025-07-28T10:41:55.873470188Z</time></trkpt><trkpt lat="42.490757" lon="-2.753111"><ele>543.885</ele><time>2025-07-28T10:42:35.873472452Z</time></trkpt><trkpt lat="42.490777" lon="-2.753061"><ele>543.538</ele><time>2025-07-28T10:43:15.873474706Z</time></trkpt><trkpt lat="42.490777" lon="-2.753041"><ele>543.261</ele><time>2025-07-28T10:43:55.873477001Z</time></trkpt><trkpt lat="42.490777" lon="-2.753061"><ele>543.521</ele><time>2025-07-28T10:44:35.873479285Z</time></trkpt><trkpt lat="42.490567" lon="-2.753381"><ele>544.613</ele><time>2025-07-28T10:45:15.873481559Z</time></trkpt><trkpt lat="42.490198" lon="-2.753831"><ele>545.407</ele><time>2025-07-28T10:45:55.873483823Z</time></trkpt><trkpt lat="42.489798" lon="-2.754201"><ele>545.881</ele><time>2025-07-28T10:46:35.873486027Z</time></trkpt><trkpt lat="42.489388" lon="-2.754761"><ele>544.985</ele><time>2025-07-28T10:47:15.873488252Z</time></trkpt><trkpt lat="42.488938" lon="-2.755361"><ele>545.086</ele><time>2025-07-28T10:47:55.873490536Z</time></trkpt><trkpt lat="42.488658" lon="-2.755741"><ele>546.675</ele><time>2025-07-28T10:48:35.873492770Z</time></trkpt><trkpt lat="42.488638" lon="-2.755741"><ele>546.594</ele><time>2025-07-28T10:49:15.873494994Z</time></trkpt><trkpt lat="42.488658" lon="-2.755771"><ele>546.979</ele><time>2025-07-28T10:49:55.873497279Z</time></trkpt><trkpt lat="42.488568" lon="-2.755851"><ele>547.052</ele><time>2025-07-28T10:50:35.873499543Z</time></trkpt><trkpt lat="42.488118" lon="-2.755771"><ele>547.685</ele><time>2025-07-28T10:51:15.873506646Z</time></trkpt><trkpt lat="42.487858" lon="-2.755590"><ele>550.989</ele><time>2025-07-28T10:51:55.873509041Z</time></trkpt><trkpt lat="42.487838" lon="-2.755570"><ele>551.217</ele><time>2025-07-28T10:52:35.873511275Z</time></trkpt></trkseg></trk></gpx>